Time;durP1;ratioP1;P1;durP2;ratioP2;P2;SDS_P1;SDS_P2;PMS_P1;PMS_P2;Temp;Humidity;BMP_temperature;BMP_pressure;BME280_temperature;BME280_humidity;BME280_pressure;Samples;Min_cycle;Max_cycle;Signal;HPM_P1;HPM_P2
2022/11/17 00:00:04;;;;;;;14.50;7.50;;;3.40;99.90;;;;;;7622651;19;20014;-76
2022/11/17 00:02:40;;;;;;;12.13;8.05;;;3.40;99.90;;;;;;7622584;19;20022;-75
2022/11/17 00:05:13;;;;;;;14.70;7.20;;;3.40;99.90;;;;;;7616476;19;21773;-76
2022/11/17 00:07:48;;;;;;;11.07;6.85;;;3.40;99.90;;;;;;7622536;19;20018;-76
2022/11/17 00:10:20;;;;;;;10.43;6.22;;;3.30;99.90;;;;;;7608354;19;20015;-76
2022/11/17 00:15:43;;;;;;;9.80;6.88;;;3.30;99.90;;;;;;7622691;19;20050;-77
2022/11/17 00:21:20;;;;;;;9.82;6.30;;;3.20;99.90;;;;;;7617421;19;20553;-75
2022/11/17 00:23:53;;;;;;;11.68;6.43;;;3.20;99.90;;;;;;7618378;19;20025;-76
2022/11/17 00:26:31;;;;;;;6.70;5.27;;;3.20;99.90;;;;;;7620859;19;20014;-77
2022/11/17 00:29:04;;;;;;;7.82;5.00;;;3.20;99.90;;;;;;7615423;19;20062;-76
2022/11/17 00:34:29;;;;;;;9.60;6.07;;;3.60;99.90;;;;;;7618860;19;20022;-76
2022/11/17 00:37:03;;;;;;;9.25;5.60;;;3.70;99.90;;;;;;7614227;19;20043;-76
2022/11/17 00:39:35;;;;;;;12.55;6.15;;;3.60;99.90;;;;;;7614401;19;20029;-76
2022/11/17 00:42:07;;;;;;;9.30;5.57;;;3.70;99.90;;;;;;7612629;19;20019;-75
2022/11/17 00:44:39;;;;;;;8.85;5.38;;;3.60;99.90;;;;;;7619692;19;20022;-76
2022/11/17 00:47:11;;;;;;;7.20;5.00;;;3.60;99.90;;;;;;7618362;19;20015;-76
2022/11/17 00:49:43;;;;;;;7.28;4.93;;;3.60;99.90;;;;;;7614695;19;20093;-75
2022/11/17 00:52:16;;;;;;;12.65;5.32;;;3.60;99.90;;;;;;7625273;19;20014;-77
2022/11/17 00:54:48;;;;;;;7.38;5.05;;;3.60;99.90;;;;;;7630999;19;20014;-76
2022/11/17 00:57:20;;;;;;;8.23;4.63;;;3.70;99.90;;;;;;7626086;19;20014;-77
2022/11/17 00:59:55;;;;;;;8.63;4.35;;;3.70;99.90;;;;;;7627693;19;21079;-77
2022/11/17 01:02:27;;;;;;;8.45;4.63;;;3.80;99.90;;;;;;7626173;19;20154;-76
2022/11/17 01:04:59;;;;;;;8.93;5.70;;;3.80;99.90;;;;;;7626896;19;20026;-77
2022/11/17 01:07:34;;;;;;;9.52;4.65;;;3.80;99.90;;;;;;7627446;19;20014;-76
2022/11/17 01:10:07;;;;;;;9.55;4.82;;;3.80;99.90;;;;;;7630555;19;20675;-77
2022/11/17 01:12:39;;;;;;;7.47;4.47;;;3.80;99.90;;;;;;7628073;19;20018;-76
2022/11/17 01:15:11;;;;;;;8.27;4.75;;;3.90;99.90;;;;;;7621900;19;20026;-76
2022/11/17 01:17:43;;;;;;;9.07;5.40;;;3.90;99.90;;;;;;7604887;19;20029;-76
2022/11/17 01:20:15;;;;;;;10.23;5.35;;;4.00;99.90;;;;;;7610318;19;20031;-76
2022/11/17 01:22:47;;;;;;;10.07;5.15;;;3.90;99.90;;;;;;7621602;19;20018;-77
2022/11/17 01:25:19;;;;;;;5.85;4.50;;;3.90;99.90;;;;;;7625262;19;20090;-77
2022/11/17 01:27:51;;;;;;;9.77;5.10;;;4.00;99.90;;;;;;7615783;19;20630;-76
2022/11/17 01:30:23;;;;;;;12.05;6.32;;;3.90;99.90;;;;;;7628090;19;20034;-76
2022/11/17 01:32:55;;;;;;;7.97;4.38;;;4.00;99.90;;;;;;7623852;19;20024;-77
2022/11/17 01:35:27;;;;;;;6.75;4.90;;;4.00;99.90;;;;;;7619229;19;20439;-76
2022/11/17 01:37:59;;;;;;;6.35;4.28;;;4.10;99.90;;;;;;7623603;19;20672;-76
2022/11/17 01:40:31;;;;;;;11.48;4.55;;;4.10;99.90;;;;;;7622285;19;20778;-76
2022/11/17 01:43:09;;;;;;;8.15;4.60;;;4.10;99.90;;;;;;7617553;19;20015;-77
2022/11/17 01:45:42;;;;;;;5.80;4.07;;;4.20;99.90;;;;;;7630752;19;20018;-76
2022/11/17 01:48:14;;;;;;;7.00;4.50;;;4.20;99.90;;;;;;7629638;19;20094;-76
2022/11/17 01:50:48;;;;;;;6.50;4.60;;;4.20;99.90;;;;;;7625546;19;20015;-77
2022/11/17 01:53:21;;;;;;;;;;;4.30;99.90;;;;;;7622305;19;20015;-76
2022/11/17 01:55:58;;;;;;;5.68;4.20;;;4.30;99.90;;;;;;7616991;19;19925;-77
2022/11/17 01:58:35;;;;;;;7.57;4.30;;;4.40;99.90;;;;;;7627541;19;20416;-77
2022/11/17 02:01:07;;;;;;;5.30;4.07;;;4.40;99.90;;;;;;7622033;19;20019;-76
2022/11/17 02:03:40;;;;;;;5.13;4.05;;;4.40;99.90;;;;;;7626191;19;20675;-76
2022/11/17 02:06:20;;;;;;;7.45;4.88;;;4.40;99.90;;;;;;7627269;19;20022;-77
2022/11/17 02:08:53;;;;;;;5.60;3.83;;;4.40;99.90;;;;;;7631062;19;20018;-77
2022/11/17 02:11:28;;;;;;;8.77;4.70;;;4.40;99.90;;;;;;7627028;19;20025;-77
2022/11/17 02:14:03;;;;;;;8.52;4.35;;;4.40;99.90;;;;;;7628386;19;20026;-77
2022/11/17 02:16:35;;;;;;;5.30;4.20;;;4.50;99.90;;;;;;7633589;19;20493;-77
2022/11/17 02:19:10;;;;;;;5.90;4.15;;;4.50;99.90;;;;;;7627405;19;20010;-77
2022/11/17 02:22:20;;;;;;;7.00;3.60;;;4.60;99.90;;;;;;7625016;19;20014;-78
2022/11/17 02:25:26;;;;;;;7.68;4.13;;;4.70;99.90;;;;;;7611333;19;20155;-77
2022/11/17 02:28:13;;;;;;;5.10;3.65;;;4.70;99.90;;;;;;7623273;19;20029;-77
2022/11/17 02:31:01;;;;;;;4.47;3.50;;;4.70;99.90;;;;;;7624768;19;20015;-78
2022/11/17 02:33:46;;;;;;;4.72;3.33;;;4.80;99.90;;;;;;7623031;19;20828;-77
2022/11/17 02:36:30;;;;;;;6.90;5.30;;;4.70;99.90;;;;;;7616056;19;20469;-76
2022/11/17 02:39:20;;;;;;;5.43;3.75;;;4.80;99.90;;;;;;7608389;19;20907;-75
2022/11/17 02:42:02;;;;;;;8.20;4.43;;;4.80;99.90;;;;;;7611528;19;20371;-75
2022/11/17 02:44:41;;;;;;;8.63;4.00;;;4.80;99.90;;;;;;7599329;19;20014;-75
2022/11/17 02:47:34;;;;;;;5.45;3.10;;;4.80;99.90;;;;;;7616346;19;20534;-76
2022/11/17 02:50:09;;;;;;;8.23;3.70;;;4.80;99.90;;;;;;7614291;19;20014;-75
2022/11/17 02:52:41;;;;;;;6.82;3.90;;;4.80;99.90;;;;;;7617772;19;20029;-75
2022/11/17 02:55:13;;;;;;;7.15;3.47;;;4.80;99.90;;;;;;7608418;19;20018;-76
2022/11/17 02:57:46;;;;;;;6.15;3.75;;;4.80;99.90;;;;;;7612618;19;20446;-77
2022/11/17 03:00:19;;;;;;;5.53;3.70;;;4.90;99.90;;;;;;7614587;19;20025;-77
2022/11/17 03:03:11;;;;;;;5.63;3.92;;;4.90;99.90;;;;;;7621361;19;20823;-76
2022/11/17 03:06:08;;;;;;;9.32;3.75;;;4.90;99.90;;;;;;7617730;19;20331;-75
2022/11/17 03:09:12;;;;;;;6.43;3.72;;;4.90;99.90;;;;;;7620916;19;20014;-76
2022/11/17 03:11:48;;;;;;;5.05;3.60;;;4.90;99.90;;;;;;7610127;19;20019;-77
2022/11/17 03:14:40;;;;;;;6.50;3.80;;;4.80;99.90;;;;;;7630552;19;20911;-77
2022/11/17 03:17:58;;;;;;;4.20;3.13;;;4.90;99.90;;;;;;7620445;19;20481;-76
2022/11/17 03:20:54;;;;;;;4.65;3.33;;;4.90;99.90;;;;;;7622009;19;20635;-77
2022/11/17 03:23:58;;;;;;;6.50;3.42;;;4.90;99.90;;;;;;7621779;19;20026;-76
2022/11/17 03:26:35;;;;;;;4.40;3.28;;;4.90;99.90;;;;;;7625709;19;20019;-77
2022/11/17 03:29:11;;;;;;;4.70;3.40;;;5.00;99.90;;;;;;7619532;19;20139;-77
2022/11/17 03:31:46;;;;;;;4.75;3.10;;;5.00;99.90;;;;;;7625686;19;20014;-77
2022/11/17 03:34:21;;;;;;;4.38;3.30;;;4.90;99.90;;;;;;7618194;19;20018;-78
2022/11/17 03:37:00;;;;;;;5.05;3.45;;;5.00;99.90;;;;;;7623216;19;20074;-76
2022/11/17 03:39:36;;;;;;;3.85;3.38;;;5.00;99.90;;;;;;7625030;19;20014;-78
2022/11/17 03:42:19;;;;;;;5.13;4.00;;;4.90;99.90;;;;;;7619178;19;20019;-77
2022/11/17 03:45:01;;;;;;;7.57;4.07;;;4.90;99.90;;;;;;7625104;19;20651;-77
2022/11/17 03:47:34;;;;;;;6.65;3.97;;;4.90;99.90;;;;;;7629961;19;20014;-77
2022/11/17 03:50:15;;;;;;;7.18;4.10;;;4.90;99.90;;;;;;7608984;19;20010;-75
2022/11/17 03:52:48;;;;;;;7.28;5.00;;;4.90;99.90;;;;;;7619146;19;20018;-76
2022/11/17 03:55:26;;;;;;;8.03;4.80;;;4.90;99.90;;;;;;7619053;19;20033;-75
2022/11/17 03:58:11;;;;;;;7.20;4.78;;;4.80;99.90;;;;;;7615330;19;20766;-77
2022/11/17 04:00:45;;;;;;;7.18;4.55;;;5.00;99.90;;;;;;7615634;19;20034;-76
2022/11/17 04:03:20;;;;;;;7.50;4.85;;;5.00;99.90;;;;;;7614446;19;20023;-75
2022/11/17 04:05:52;;;;;;;8.57;5.00;;;5.00;99.90;;;;;;7608719;19;20026;-75
2022/11/17 04:08:28;;;;;;;5.53;4.15;;;5.00;99.90;;;;;;7615980;19;20036;-76
2022/11/17 04:16:41;;;;;;;10.80;5.22;;;5.10;99.90;;;;;;7611116;19;20031;-76
2022/11/17 04:19:13;;;;;;;6.82;4.80;;;5.10;99.90;;;;;;7613060;19;20010;-76
2022/11/17 04:21:45;;;;;;;6.78;4.72;;;5.10;99.90;;;;;;7612038;19;20661;-75
2022/11/17 04:24:17;;;;;;;6.20;4.40;;;5.10;99.90;;;;;;7628515;19;20017;-76
2022/11/17 04:29:40;;;;;;;8.40;4.75;;;5.10;99.90;;;;;;7625784;19;20123;-75
2022/11/17 04:32:12;;;;;;;6.93;5.03;;;5.10;99.90;;;;;;7628324;19;20106;-76
2022/11/17 04:34:44;;;;;;;7.30;5.00;;;5.20;99.90;;;;;;7623859;19;20112;-76
2022/11/17 04:37:16;;;;;;;7.68;4.90;;;5.30;99.90;;;;;;7621522;19;20010;-76
2022/11/17 04:39:48;;;;;;;6.30;4.70;;;5.40;99.90;;;;;;7621859;19;20038;-76
2022/11/17 04:42:20;;;;;;;10.95;6.10;;;5.30;99.90;;;;;;7610535;19;20011;-76
2022/11/17 04:44:52;;;;;;;9.00;5.72;;;5.40;99.90;;;;;;7615847;19;20018;-76
2022/11/17 04:47:24;;;;;;;11.43;5.75;;;5.40;99.90;;;;;;7626016;19;20013;-77
2022/11/17 04:49:57;;;;;;;9.70;5.55;;;5.40;99.90;;;;;;7624430;19;20053;-77
2022/11/17 04:52:29;;;;;;;8.60;6.00;;;5.40;99.90;;;;;;7614453;19;20017;-77
2022/11/17 04:55:01;;;;;;;11.90;5.68;;;5.40;99.90;;;;;;7620511;19;20022;-76
2022/11/17 04:57:33;;;;;;;9.45;6.15;;;5.50;99.90;;;;;;7622088;19;20499;-77
2022/11/17 05:00:06;;;;;;;9.40;6.28;;;5.40;99.90;;;;;;7623149;19;20982;-76
2022/11/17 05:02:38;;;;;;;9.70;6.90;;;5.40;99.90;;;;;;7620156;19;20017;-77
2022/11/17 05:05:10;;;;;;;7.97;5.60;;;5.30;99.90;;;;;;7619180;19;20082;-77
2022/11/17 05:07:42;;;;;;;9.75;5.55;;;5.30;99.90;;;;;;7615571;19;20021;-76
2022/11/17 05:10:14;;;;;;;8.57;4.95;;;5.30;99.90;;;;;;7622285;19;20105;-77
2022/11/17 05:18:28;;;;;;;7.82;5.20;;;5.30;99.90;;;;;;7619219;19;20019;-76
2022/11/17 05:21:05;;;;;;;9.55;5.30;;;5.30;99.90;;;;;;7587277;19;20029;-76
2022/11/17 05:23:55;;;;;;;7.82;4.28;;;5.40;99.90;;;;;;7611824;19;20018;-76
2022/11/17 05:26:30;;;;;;;8.40;4.75;;;5.40;99.90;;;;;;7614052;19;20021;-77
2022/11/17 05:29:04;;;;;;;4.57;3.92;;;5.40;99.90;;;;;;7628098;19;20018;-76
2022/11/17 05:31:37;;;;;;;5.50;3.45;;;5.30;99.90;;;;;;7619539;19;20065;-76
2022/11/17 05:34:11;;;;;;;6.22;3.63;;;5.40;99.90;;;;;;7576200;19;20017;-76
2022/11/17 05:36:44;;;;;;;3.92;2.88;;;5.40;99.90;;;;;;7594618;19;20010;-77
2022/11/17 05:39:16;;;;;;;3.97;2.78;;;5.50;99.90;;;;;;7622832;19;20027;-77
2022/11/17 05:41:48;;;;;;;3.65;2.55;;;5.60;99.90;;;;;;7603940;19;20018;-76
2022/11/17 05:44:20;;;;;;;4.75;2.83;;;5.60;99.90;;;;;;7614989;19;20041;-77
2022/11/17 05:46:53;;;;;;;3.60;2.50;;;5.60;99.90;;;;;;7571863;19;20472;-77
2022/11/17 05:49:25;;;;;;;4.03;2.60;;;5.60;99.90;;;;;;7586767;19;20035;-76
2022/11/17 05:51:57;;;;;;;4.78;3.30;;;5.70;99.90;;;;;;7623633;19;20006;-77
2022/11/17 05:54:29;;;;;;;5.22;3.78;;;5.60;99.90;;;;;;7625327;19;20908;-77
2022/11/17 05:57:06;;;;;;;7.78;4.15;;;5.60;99.90;;;;;;7635440;19;20038;-77
2022/11/17 05:59:44;;;;;;;6.10;3.75;;;5.50;99.90;;;;;;7613331;19;20010;-77
2022/11/17 06:02:26;;;;;;;4.68;3.53;;;5.60;99.90;;;;;;7626209;19;20014;-77
2022/11/17 06:04:58;;;;;;;5.95;3.97;;;5.60;99.90;;;;;;7563537;19;20010;-76
2022/11/17 06:07:30;;;;;;;8.93;5.05;;;5.60;99.90;;;;;;7596226;19;20021;-76
2022/11/17 06:10:02;;;;;;;6.25;4.80;;;5.60;99.90;;;;;;7590032;19;20114;-76
2022/11/17 06:12:34;;;;;;;13.07;7.55;;;5.60;99.90;;;;;;7568729;19;20094;-76
2022/11/17 06:15:07;;;;;;;10.07;6.63;;;5.70;99.90;;;;;;7557471;19;20015;-76
2022/11/17 06:17:49;;;;;;;18.58;9.85;;;5.70;99.90;;;;;;7598152;19;20026;-76
2022/11/17 06:20:25;;;;;;;32.97;14.32;;;5.70;99.90;;;;;;7601018;19;20026;-76
2022/11/17 06:23:01;;;;;;;19.75;9.93;;;5.70;99.90;;;;;;7597379;19;20018;-76
2022/11/17 06:25:36;;;;;;;19.08;9.13;;;5.70;99.90;;;;;;7585176;19;20006;-75
2022/11/17 06:28:12;;;;;;;17.35;9.38;;;5.70;99.90;;;;;;7595735;19;22442;-76
2022/11/17 06:30:44;;;;;;;17.20;8.93;;;5.70;99.90;;;;;;7596518;19;20359;-76
2022/11/17 06:33:18;;;;;;;19.05;8.85;;;5.70;99.90;;;;;;7608387;19;20026;-76
2022/11/17 06:35:50;;;;;;;;;;;5.70;99.90;;;;;;7599264;19;20018;-76
2022/11/17 06:38:22;;;;;;;41.75;22.45;;;5.70;99.90;;;;;;7612859;19;19927;-76
2022/11/17 06:40:55;;;;;;;19.40;11.98;;;5.80;99.90;;;;;;7609099;19;20435;-76
2022/11/17 06:43:27;;;;;;;9.15;6.18;;;5.80;99.90;;;;;;7607710;19;20046;-75
2022/11/17 06:46:04;;;;;;;11.38;6.13;;;5.70;99.90;;;;;;7608299;19;20018;-76
2022/11/17 06:48:36;;;;;;;7.50;5.10;;;5.70;99.90;;;;;;7609882;19;20014;-76
2022/11/17 06:51:09;;;;;;;9.75;5.93;;;5.70;99.90;;;;;;7618230;19;20031;-75
2022/11/17 06:53:42;;;;;;;16.75;5.93;;;5.70;99.90;;;;;;7614006;19;20025;-76
2022/11/17 06:56:16;;;;;;;8.07;5.15;;;5.80;99.90;;;;;;7615334;19;20332;-75
2022/11/17 06:58:48;;;;;;;7.78;4.40;;;5.80;99.90;;;;;;7616849;19;20031;-75
2022/11/17 07:01:20;;;;;;;6.80;4.35;;;5.90;99.90;;;;;;7590527;19;20023;-76
2022/11/17 07:03:52;;;;;;;11.05;4.65;;;5.90;99.90;;;;;;7580240;19;20691;-75
2022/11/17 07:06:25;;;;;;;7.47;4.80;;;6.00;99.90;;;;;;7598670;19;20015;-75
2022/11/17 07:08:57;;;;;;;6.72;5.25;;;6.00;99.90;;;;;;7595948;19;20010;-75
2022/11/17 07:11:29;;;;;;;10.77;5.78;;;6.10;99.90;;;;;;7602829;19;20775;-75
2022/11/17 07:14:02;;;;;;;13.02;6.85;;;6.10;99.90;;;;;;7593598;19;20025;-76
2022/11/17 07:16:34;;;;;;;15.80;5.63;;;6.10;99.90;;;;;;7604745;19;20019;-76
2022/11/17 07:19:08;;;;;;;9.40;6.78;;;6.10;99.90;;;;;;7601463;19;20023;-76
2022/11/17 07:21:40;;;;;;;8.27;5.65;;;6.10;99.90;;;;;;7591334;19;20014;-76
2022/11/17 07:24:12;;;;;;;9.90;6.32;;;6.20;99.90;;;;;;7605233;19;20371;-76
2022/11/17 07:26:44;;;;;;;11.55;5.35;;;6.30;99.90;;;;;;7598667;19;20033;-76
2022/11/17 07:29:16;;;;;;;11.07;5.97;;;6.30;99.90;;;;;;7603096;19;20042;-75
2022/11/17 07:31:48;;;;;;;9.70;5.35;;;6.30;99.90;;;;;;7598552;19;20025;-76
2022/11/17 07:34:21;;;;;;;11.98;5.45;;;6.40;99.90;;;;;;7609389;19;20590;-77
2022/11/17 07:36:53;;;;;;;10.73;5.90;;;6.40;99.90;;;;;;7587109;19;20011;-76
2022/11/17 07:39:26;;;;;;;9.80;5.68;;;6.40;99.90;;;;;;7597637;19;20048;-77
2022/11/17 07:41:58;;;;;;;11.93;5.72;;;6.40;99.90;;;;;;7590611;19;20843;-76
2022/11/17 07:44:33;;;;;;;12.02;7.20;;;6.40;99.90;;;;;;7591118;19;20099;-75
2022/11/17 07:47:09;;;;;;;17.85;6.40;;;6.50;99.90;;;;;;7598387;19;20019;-75
2022/11/17 07:49:41;;;;;;;12.70;7.25;;;6.50;99.90;;;;;;7589180;19;20046;-76
2022/11/17 07:52:13;;;;;;;17.55;7.80;;;6.50;99.90;;;;;;7587064;19;20536;-76
2022/11/17 07:54:45;;;;;;;16.73;7.20;;;6.50;99.90;;;;;;7585300;19;21109;-75
2022/11/17 07:57:17;;;;;;;12.63;6.13;;;6.50;99.90;;;;;;7593491;19;20011;-75
2022/11/17 07:59:49;;;;;;;12.27;7.57;;;6.60;99.90;;;;;;7596236;19;20015;-76
2022/11/17 08:02:21;;;;;;;15.65;8.02;;;6.70;99.90;;;;;;7595298;19;20052;-75
2022/11/17 08:04:53;;;;;;;11.55;7.00;;;6.70;99.90;;;;;;7591844;19;20022;-75
2022/11/17 08:07:25;;;;;;;9.68;7.35;;;6.70;99.90;;;;;;7598254;19;20049;-75
2022/11/17 08:09:58;;;;;;;20.20;9.43;;;6.70;99.90;;;;;;7586423;19;20019;-76
2022/11/17 08:12:29;;;;;;;13.35;7.88;;;6.80;99.90;;;;;;7598432;19;20095;-76
2022/11/17 08:15:02;;;;;;;18.20;8.63;;;6.90;99.90;;;;;;7600480;19;20022;-76
2022/11/17 08:17:34;;;;;;;13.15;7.72;;;6.90;99.90;;;;;;7603107;19;20130;-76
2022/11/17 08:20:07;;;;;;;17.00;9.32;;;6.90;99.90;;;;;;7572428;19;20042;-77
2022/11/17 08:22:39;;;;;;;17.17;10.30;;;7.00;99.90;;;;;;7576991;19;20648;-77
2022/11/17 08:25:12;;;;;;;14.52;8.35;;;7.00;99.90;;;;;;7581995;19;20014;-75
2022/11/17 08:27:45;;;;;;;18.42;11.55;;;7.00;99.90;;;;;;7598484;19;20019;-75
2022/11/17 08:30:19;;;;;;;16.52;9.40;;;7.00;99.90;;;;;;7592622;19;20014;-75
2022/11/17 08:32:53;;;;;;;13.55;8.77;;;6.90;99.90;;;;;;7598928;19;20082;-75
2022/11/17 08:35:26;;;;;;;10.70;8.23;;;7.00;99.90;;;;;;7584749;19;20609;-75
2022/11/17 08:38:01;;;;;;;12.20;8.35;;;7.10;99.90;;;;;;7587129;19;20029;-75
2022/11/17 08:40:33;;;;;;;15.00;8.98;;;7.10;99.90;;;;;;7582323;19;20022;-76
2022/11/17 08:43:06;;;;;;;18.77;12.15;;;7.10;99.90;;;;;;7603597;19;20010;-76
2022/11/17 08:45:41;;;;;;;13.13;8.70;;;7.20;99.90;;;;;;7603704;19;20108;-76
2022/11/17 08:48:13;;;;;;;21.42;10.80;;;7.20;99.90;;;;;;7601955;19;21238;-76
2022/11/17 08:50:46;;;;;;;12.13;8.88;;;7.30;99.90;;;;;;7607085;19;20051;-76
2022/11/17 08:53:20;;;;;;;15.88;11.15;;;7.40;99.90;;;;;;7606338;19;20355;-75
2022/11/17 08:55:52;;;;;;;11.38;7.80;;;7.50;99.90;;;;;;7595047;19;20097;-76
2022/11/17 08:58:24;;;;;;;10.77;6.80;;;7.50;99.90;;;;;;7613614;19;20029;-76
2022/11/17 09:00:56;;;;;;;15.95;10.82;;;7.70;99.90;;;;;;7604793;19;20039;-76
2022/11/17 09:03:36;;;;;;;25.05;12.85;;;7.70;99.90;;;;;;7610873;19;20015;-76
2022/11/17 09:06:09;;;;;;;13.40;9.97;;;7.80;99.90;;;;;;7602344;19;20018;-76
2022/11/17 09:08:41;;;;;;;13.80;6.68;;;7.90;99.90;;;;;;7606775;19;20394;-76
2022/11/17 09:11:19;;;;;;;11.80;6.25;;;8.10;99.90;;;;;;7604816;19;20653;-76
2022/11/17 09:13:52;;;;;;;11.27;7.07;;;8.10;99.90;;;;;;7606528;19;20048;-76
2022/11/17 09:16:24;;;;;;;9.20;6.50;;;8.20;99.90;;;;;;7604010;19;20022;-75
2022/11/17 09:18:57;;;;;;;14.27;6.05;;;8.50;99.90;;;;;;7598445;19;20647;-76
2022/11/17 09:21:30;;;;;;;9.05;4.90;;;8.60;99.90;;;;;;7604784;19;20030;-76
2022/11/17 09:24:02;;;;;;;6.35;3.33;;;8.80;99.90;;;;;;7605441;19;20025;-74
2022/11/17 09:26:35;;;;;;;4.28;2.80;;;9.00;99.90;;;;;;7602255;19;22644;-76
2022/11/17 09:29:07;;;;;;;4.88;3.15;;;9.10;99.90;;;;;;7600934;19;20025;-76
2022/11/17 09:31:40;;;;;;;6.43;3.80;;;9.20;99.90;;;;;;7598717;19;20018;-77
2022/11/17 09:34:12;;;;;;;5.93;2.85;;;9.20;99.90;;;;;;7600674;19;20011;-77
2022/11/17 09:36:44;;;;;;;5.03;3.10;;;9.30;99.90;;;;;;7583304;19;20636;-76
2022/11/17 09:39:16;;;;;;;8.43;2.78;;;9.30;99.90;;;;;;7605222;19;20018;-76
2022/11/17 09:41:52;;;;;;;4.82;2.38;;;9.40;99.90;;;;;;7603661;19;20459;-75
2022/11/17 09:44:30;;;;;;;4.55;2.53;;;9.60;99.90;;;;;;7606945;19;20014;-75
2022/11/17 09:47:30;;;;;;;2.92;2.10;;;9.70;99.90;;;;;;7592565;19;20015;-75
2022/11/17 09:50:05;;;;;;;4.57;1.60;;;9.90;99.90;;;;;;7610626;19;20018;-75
2022/11/17 09:53:05;;;;;;;5.18;2.35;;;10.00;99.90;;;;;;7604849;19;20019;-75
2022/11/17 09:55:44;;;;;;;4.90;2.03;;;10.20;99.90;;;;;;7597194;19;20496;-75
2022/11/17 09:58:54;;;;;;;3.95;1.70;;;10.30;99.90;;;;;;7601349;19;20037;-74
2022/11/17 10:01:27;;;;;;;6.38;2.33;;;10.50;99.90;;;;;;7598140;19;20633;-75
2022/11/17 10:04:00;;;;;;;2.60;1.95;;;10.60;99.90;;;;;;7604384;19;20065;-75
2022/11/17 10:06:32;;;;;;;7.97;2.30;;;10.60;99.90;;;;;;7606606;19;20462;-75
2022/11/17 10:09:16;;;;;;;2.78;1.70;;;10.60;99.90;;;;;;7612356;19;20371;-75
2022/11/17 10:12:11;;;;;;;1.95;1.33;;;10.70;99.90;;;;;;7617789;19;20497;-75
2022/11/17 10:14:47;;;;;;;2.38;1.52;;;10.80;99.90;;;;;;7612786;19;20093;-75
2022/11/17 10:17:19;;;;;;;3.40;1.83;;;10.90;99.90;;;;;;7607395;19;20101;-75
2022/11/17 10:19:51;;;;;;;7.20;2.15;;;11.00;99.90;;;;;;7613679;19;20101;-75
2022/11/17 10:22:33;;;;;;;3.58;2.30;;;11.10;99.90;;;;;;7617826;19;20030;-75
2022/11/17 10:25:22;;;;;;;5.47;2.92;;;11.10;99.90;;;;;;7611768;19;20019;-75
2022/11/17 10:27:54;;;;;;;6.93;2.65;;;11.10;99.90;;;;;;7595003;19;20470;-74
2022/11/17 10:30:27;;;;;;;2.20;1.77;;;11.00;99.90;;;;;;7595974;19;20064;-77
2022/11/17 10:33:00;;;;;;;2.92;1.60;;;10.80;99.90;;;;;;7602387;19;20018;-75
2022/11/17 10:35:34;;;;;;;6.10;1.90;;;10.80;99.90;;;;;;7603740;19;20810;-76
2022/11/17 10:38:17;;;;;;;2.70;1.90;;;10.70;99.90;;;;;;7606662;19;20010;-76
2022/11/17 10:40:51;;;;;;;5.03;2.40;;;10.50;99.90;;;;;;7601308;19;20022;-75
2022/11/17 10:43:35;;;;;;;3.72;1.80;;;10.50;99.90;;;;;;7601662;19;20418;-76
2022/11/17 10:46:15;;;;;;;2.15;1.80;;;10.60;99.90;;;;;;7599549;19;20411;-75
2022/11/17 10:48:59;;;;;;;4.57;1.92;;;10.70;99.90;;;;;;7608269;19;20022;-75
2022/11/17 10:51:33;;;;;;;2.42;1.90;;;10.80;99.90;;;;;;7605002;19;20022;-74
2022/11/17 10:54:14;;;;;;;3.28;2.00;;;10.80;99.90;;;;;;7605832;19;20018;-75
2022/11/17 10:56:50;;;;;;;5.28;1.70;;;10.80;99.90;;;;;;7610140;19;20105;-74
2022/11/17 10:59:41;;;;;;;2.67;1.65;;;10.90;99.90;;;;;;7602283;19;20014;-75
2022/11/17 11:02:48;;;;;;;3.08;1.77;;;11.00;99.90;;;;;;7590003;19;20022;-75
2022/11/17 11:05:21;;;;;;;3.05;1.90;;;11.20;99.90;;;;;;7600918;19;20015;-76
2022/11/17 11:08:18;;;;;;;3.92;1.83;;;11.30;99.90;;;;;;7603908;19;20018;-76
2022/11/17 11:10:52;;;;;;;2.75;1.60;;;11.50;99.90;;;;;;7609141;19;20010;-76
2022/11/17 11:13:41;;;;;;;;;;;11.70;99.90;;;;;;7606228;19;20458;-76
2022/11/17 11:16:13;;;;;;;2.78;1.80;;;11.80;99.90;;;;;;7613308;19;20815;-75
2022/11/17 11:18:46;;;;;;;3.88;1.50;;;11.90;99.90;;;;;;7608180;19;20014;-76
2022/11/17 11:21:37;;;;;;;2.63;1.80;;;11.80;99.90;;;;;;7598642;19;20018;-76
2022/11/17 11:24:15;;;;;;;5.53;1.40;;;11.90;99.90;;;;;;7604308;19;20022;-76
2022/11/17 11:27:21;;;;;;;4.68;1.50;;;11.90;99.90;;;;;;7600353;19;20021;-76
2022/11/17 11:30:04;;;;;;;3.30;1.60;;;12.30;99.90;;;;;;7611773;19;20022;-76
2022/11/17 11:32:55;;;;;;;2.60;1.73;;;12.60;99.90;;;;;;7601552;19;20015;-75
2022/11/17 11:35:45;;;;;;;2.33;1.15;;;12.80;99.90;;;;;;7605932;19;20383;-76
2022/11/17 11:38:23;;;;;;;4.05;1.40;;;12.80;99.90;;;;;;7594729;19;20042;-76
2022/11/17 11:41:29;;;;;;;4.20;1.52;;;12.70;99.90;;;;;;7586632;19;20106;-76
2022/11/17 11:44:01;;;;;;;5.70;2.03;;;12.70;99.90;;;;;;7579204;19;20019;-76
2022/11/17 11:47:15;;;;;;;11.43;4.03;;;12.60;99.90;;;;;;7597407;19;20026;-76
2022/11/17 11:49:56;;;;;;;3.88;1.73;;;12.60;99.90;;;;;;7617433;19;20090;-76
2022/11/17 11:52:36;;;;;;;3.13;1.30;;;12.50;99.90;;;;;;7602387;19;20757;-76
2022/11/17 11:55:35;;;;;;;12.68;2.70;;;12.50;99.90;;;;;;7609569;19;20014;-76
2022/11/17 11:58:16;;;;;;;7.88;2.40;;;12.50;99.90;;;;;;7611550;19;20019;-76
2022/11/17 12:00:57;;;;;;;9.20;3.45;;;12.40;99.90;;;;;;7616208;19;20018;-76
2022/11/17 12:03:43;;;;;;;1.27;0.80;;;12.30;99.90;;;;;;7619748;19;20015;-77
2022/11/17 12:06:52;;;;;;;5.45;2.35;;;12.50;99.90;;;;;;7617414;19;20066;-76
2022/11/17 12:09:48;;;;;;;9.43;4.10;;;12.40;99.90;;;;;;7616909;19;20071;-76
2022/11/17 12:12:30;;;;;;;12.05;5.30;;;12.50;99.90;;;;;;7610335;19;20097;-76
2022/11/17 12:15:08;;;;;;;14.77;5.68;;;12.50;99.90;;;;;;7611322;19;20018;-77
2022/11/17 12:18:10;;;;;;;10.20;4.45;;;12.70;99.90;;;;;;7618689;19;20029;-77
2022/11/17 12:20:53;;;;;;;8.52;3.58;;;12.70;99.90;;;;;;7608115;19;20082;-77
2022/11/17 12:23:35;;;;;;;7.40;2.50;;;12.60;99.90;;;;;;7613424;19;20101;-77
2022/11/17 12:26:18;;;;;;;4.13;2.13;;;12.40;99.90;;;;;;7611007;19;20025;-77
2022/11/17 12:29:19;;;;;;;4.45;2.25;;;12.40;99.90;;;;;;7621934;19;20044;-77
2022/11/17 12:31:54;;;;;;;7.18;2.58;;;12.10;99.90;;;;;;7620118;19;20022;-77
2022/11/17 12:34:32;;;;;;;5.65;2.25;;;11.90;99.90;;;;;;7615354;19;20028;-76
2022/11/17 12:37:17;;;;;;;12.40;4.32;;;11.90;99.90;;;;;;7616612;19;20065;-76
2022/11/17 12:40:00;;;;;;;7.07;3.05;;;11.80;99.90;;;;;;7608936;19;20363;-77
2022/11/17 12:42:35;;;;;;;3.05;1.25;;;11.80;99.90;;;;;;7607291;19;20367;-77
2022/11/17 12:45:08;;;;;;;;;;;11.80;99.90;;;;;;7582045;19;20010;-77
2022/11/17 12:47:46;;;;;;;8.40;2.67;;;11.80;99.90;;;;;;7611147;19;19998;-77
2022/11/17 12:50:52;;;;;;;6.95;2.60;;;11.80;99.90;;;;;;7606589;19;20604;-77
2022/11/17 12:53:31;;;;;;;3.70;1.88;;;11.70;99.90;;;;;;7601635;19;22039;-77
2022/11/17 12:56:15;;;;;;;8.43;1.73;;;11.80;99.90;;;;;;7599677;19;20038;-77
2022/11/17 12:58:47;;;;;;;4.68;2.20;;;11.80;99.90;;;;;;7628351;19;20014;-78
2022/11/17 13:01:34;;;;;;;7.35;2.50;;;11.70;99.90;;;;;;7622729;19;20039;-77
2022/11/17 13:04:21;;;;;;;5.25;1.70;;;11.80;99.90;;;;;;7629411;19;20022;-77
2022/11/17 13:07:05;;;;;;;5.70;1.73;;;11.70;99.90;;;;;;7624435;19;20042;-77
2022/11/17 13:09:37;;;;;;;3.58;1.70;;;11.70;99.90;;;;;;7620779;19;20702;-77
2022/11/17 13:12:10;;;;;;;6.13;1.50;;;11.80;99.90;;;;;;7619949;19;20043;-77
2022/11/17 13:14:54;;;;;;;5.00;1.95;;;11.70;99.90;;;;;;7609290;19;20014;-77
2022/11/17 13:17:29;;;;;;;4.90;2.08;;;11.80;99.90;;;;;;7618225;19;20014;-77
2022/11/17 13:20:21;;;;;;;3.55;1.67;;;11.80;99.90;;;;;;7615888;19;20023;-77
2022/11/17 13:23:01;;;;;;;5.03;2.30;;;11.90;99.90;;;;;;7619143;19;20713;-77
2022/11/17 13:25:33;;;;;;;7.28;2.10;;;11.90;99.90;;;;;;7621546;19;20014;-77
2022/11/17 13:28:22;;;;;;;4.50;1.60;;;11.90;99.90;;;;;;7623130;19;20014;-77
2022/11/17 13:30:54;;;;;;;7.43;1.67;;;11.90;99.90;;;;;;7623623;19;20933;-77
2022/11/17 13:33:28;;;;;;;4.40;1.40;;;11.90;99.90;;;;;;7619212;19;20081;-77
2022/11/17 13:36:23;;;;;;;6.93;1.70;;;12.00;99.90;;;;;;7614180;19;20025;-77
2022/11/17 13:38:59;;;;;;;3.33;1.40;;;11.90;99.90;;;;;;7616374;19;20015;-77
2022/11/17 13:41:37;;;;;;;5.13;1.45;;;12.10;99.90;;;;;;7620361;19;20020;-77
2022/11/17 13:44:16;;;;;;;5.43;1.67;;;12.20;99.90;;;;;;7620355;19;20411;-77
2022/11/17 13:46:49;;;;;;;4.53;1.75;;;12.40;99.90;;;;;;7624030;19;20015;-77
2022/11/17 13:49:33;;;;;;;8.18;1.63;;;13.00;99.90;;;;;;7618091;19;20018;-77
2022/11/17 13:52:34;;;;;;;4.70;1.85;;;13.20;99.90;;;;;;7617209;19;20019;-77
2022/11/17 13:55:19;;;;;;;4.97;1.73;;;13.40;98.00;;;;;;7623350;19;20048;-77
2022/11/17 13:58:17;;;;;;;4.07;1.50;;;13.40;97.70;;;;;;7622330;19;20023;-77
2022/11/17 14:00:57;;;;;;;3.03;1.27;;;13.20;97.50;;;;;;7618835;19;20014;-76
2022/11/17 14:03:32;;;;;;;7.22;1.60;;;13.00;97.00;;;;;;7617141;19;20038;-76
2022/11/17 14:06:09;;;;;;;4.40;1.75;;;12.90;98.20;;;;;;7614082;19;20018;-76
2022/11/17 14:09:00;;;;;;;4.07;1.70;;;12.80;99.90;;;;;;7614393;19;20597;-77